sensor_id;sensor_type;location;lat;lon;timestamp;P1;durP1;ratioP1;P2;durP2;ratioP2
20415;SDS011;10367;52.202;5.996;2022-12-08T00:02:21;14.13;;;7.30;;
20415;SDS011;10367;52.202;5.996;2022-12-08T00:04:50;19.90;;;8.70;;
20415;SDS011;10367;52.202;5.996;2022-12-08T00:07:37;17.43;;;8.33;;
20415;SDS011;10367;52.202;5.996;2022-12-08T00:10:25;15.33;;;7.43;;
20415;SDS011;10367;52.202;5.996;2022-12-08T00:13:14;14.00;;;6.83;;
20415;SDS011;10367;52.202;5.996;2022-12-08T00:15:44;26.77;;;10.70;;
20415;SDS011;10367;52.202;5.996;2022-12-08T00:18:13;11.43;;;7.80;;
20415;SDS011;10367;52.202;5.996;2022-12-08T00:20:42;18.93;;;9.70;;
20415;SDS011;10367;52.202;5.996;2022-12-08T00:23:10;17.77;;;9.10;;
20415;SDS011;10367;52.202;5.996;2022-12-08T00:25:39;18.20;;;8.80;;
20415;SDS011;10367;52.202;5.996;2022-12-08T00:28:08;31.63;;;11.20;;
20415;SDS011;10367;52.202;5.996;2022-12-08T00:30:38;17.60;;;9.47;;
20415;SDS011;10367;52.202;5.996;2022-12-08T00:33:08;21.33;;;10.20;;
20415;SDS011;10367;52.202;5.996;2022-12-08T00:35:37;22.93;;;8.90;;
20415;SDS011;10367;52.202;5.996;2022-12-08T00:38:09;20.20;;;8.90;;
20415;SDS011;10367;52.202;5.996;2022-12-08T00:40:42;19.43;;;8.83;;
20415;SDS011;10367;52.202;5.996;2022-12-08T00:43:11;21.03;;;9.93;;
20415;SDS011;10367;52.202;5.996;2022-12-08T00:45:40;17.80;;;9.07;;
20415;SDS011;10367;52.202;5.996;2022-12-08T00:48:11;20.47;;;9.60;;
20415;SDS011;10367;52.202;5.996;2022-12-08T00:50:39;20.00;;;9.77;;
20415;SDS011;10367;52.202;5.996;2022-12-08T00:53:08;22.57;;;10.10;;
20415;SDS011;10367;52.202;5.996;2022-12-08T00:55:37;22.20;;;10.50;;
20415;SDS011;10367;52.202;5.996;2022-12-08T00:58:06;20.20;;;9.13;;
20415;SDS011;10367;52.202;5.996;2022-12-08T01:00:34;18.83;;;9.23;;
20415;SDS011;10367;52.202;5.996;2022-12-08T01:03:03;33.03;;;12.43;;
20415;SDS011;10367;52.202;5.996;2022-12-08T01:05:33;17.10;;;9.67;;
20415;SDS011;10367;52.202;5.996;2022-12-08T01:08:03;21.30;;;9.63;;
20415;SDS011;10367;52.202;5.996;2022-12-08T01:10:33;18.33;;;9.93;;
20415;SDS011;10367;52.202;5.996;2022-12-08T01:13:02;18.83;;;10.10;;
20415;SDS011;10367;52.202;5.996;2022-12-08T01:15:31;27.83;;;10.97;;
20415;SDS011;10367;52.202;5.996;2022-12-08T01:18:00;23.87;;;11.63;;
20415;SDS011;10367;52.202;5.996;2022-12-08T01:20:29;20.80;;;10.53;;
20415;SDS011;10367;52.202;5.996;2022-12-08T01:22:59;27.20;;;11.80;;
20415;SDS011;10367;52.202;5.996;2022-12-08T01:25:28;22.73;;;12.03;;
20415;SDS011;10367;52.202;5.996;2022-12-08T01:27:56;15.97;;;9.30;;
20415;SDS011;10367;52.202;5.996;2022-12-08T01:30:25;19.83;;;10.17;;
20415;SDS011;10367;52.202;5.996;2022-12-08T01:32:54;17.17;;;10.13;;
20415;SDS011;10367;52.202;5.996;2022-12-08T01:35:23;18.73;;;9.53;;
20415;SDS011;10367;52.202;5.996;2022-12-08T01:37:52;20.90;;;10.73;;
20415;SDS011;10367;52.202;5.996;2022-12-08T01:40:23;15.63;;;10.37;;
20415;SDS011;10367;52.202;5.996;2022-12-08T01:42:51;20.83;;;11.27;;
20415;SDS011;10367;52.202;5.996;2022-12-08T01:45:21;18.23;;;10.47;;
20415;SDS011;10367;52.202;5.996;2022-12-08T01:47:53;20.93;;;10.90;;
20415;SDS011;10367;52.202;5.996;2022-12-08T01:50:25;20.60;;;10.63;;
20415;SDS011;10367;52.202;5.996;2022-12-08T01:52:56;19.73;;;11.07;;
20415;SDS011;10367;52.202;5.996;2022-12-08T01:55:30;25.17;;;11.87;;
20415;SDS011;10367;52.202;5.996;2022-12-08T01:58:04;21.20;;;11.43;;
20415;SDS011;10367;52.202;5.996;2022-12-08T02:00:38;20.47;;;10.70;;
20415;SDS011;10367;52.202;5.996;2022-12-08T02:03:08;17.53;;;10.17;;
20415;SDS011;10367;52.202;5.996;2022-12-08T02:05:40;21.73;;;10.23;;
20415;SDS011;10367;52.202;5.996;2022-12-08T02:08:10;26.67;;;10.77;;
20415;SDS011;10367;52.202;5.996;2022-12-08T02:10:42;18.63;;;10.13;;
20415;SDS011;10367;52.202;5.996;2022-12-08T02:13:11;17.23;;;10.07;;
20415;SDS011;10367;52.202;5.996;2022-12-08T02:15:44;16.33;;;9.00;;
20415;SDS011;10367;52.202;5.996;2022-12-08T02:18:31;15.03;;;10.10;;
20415;SDS011;10367;52.202;5.996;2022-12-08T02:21:20;22.50;;;11.93;;
20415;SDS011;10367;52.202;5.996;2022-12-08T02:23:58;26.37;;;12.93;;
20415;SDS011;10367;52.202;5.996;2022-12-08T02:26:54;18.07;;;10.70;;
20415;SDS011;10367;52.202;5.996;2022-12-08T02:29:51;17.47;;;10.17;;
20415;SDS011;10367;52.202;5.996;2022-12-08T02:32:44;21.93;;;11.60;;
20415;SDS011;10367;52.202;5.996;2022-12-08T02:35:38;25.07;;;12.67;;
20415;SDS011;10367;52.202;5.996;2022-12-08T02:38:18;18.33;;;10.67;;
20415;SDS011;10367;52.202;5.996;2022-12-08T02:40:55;20.40;;;9.97;;
20415;SDS011;10367;52.202;5.996;2022-12-08T02:43:31;24.47;;;12.07;;
20415;SDS011;10367;52.202;5.996;2022-12-08T02:46:04;24.33;;;11.60;;
20415;SDS011;10367;52.202;5.996;2022-12-08T02:48:38;15.47;;;9.70;;
20415;SDS011;10367;52.202;5.996;2022-12-08T02:51:12;19.27;;;10.33;;
20415;SDS011;10367;52.202;5.996;2022-12-08T02:53:40;21.33;;;9.17;;
20415;SDS011;10367;52.202;5.996;2022-12-08T02:56:13;23.13;;;10.70;;
20415;SDS011;10367;52.202;5.996;2022-12-08T02:58:55;23.53;;;9.60;;
20415;SDS011;10367;52.202;5.996;2022-12-08T03:01:50;16.37;;;10.27;;
20415;SDS011;10367;52.202;5.996;2022-12-08T03:04:29;18.77;;;9.70;;
20415;SDS011;10367;52.202;5.996;2022-12-08T03:07:11;22.13;;;10.40;;
20415;SDS011;10367;52.202;5.996;2022-12-08T03:09:48;15.70;;;9.10;;
20415;SDS011;10367;52.202;5.996;2022-12-08T03:12:22;18.13;;;10.10;;
20415;SDS011;10367;52.202;5.996;2022-12-08T03:14:55;20.30;;;10.20;;
20415;SDS011;10367;52.202;5.996;2022-12-08T03:17:30;16.43;;;8.53;;
20415;SDS011;10367;52.202;5.996;2022-12-08T03:19:59;26.17;;;11.33;;
20415;SDS011;10367;52.202;5.996;2022-12-08T03:22:32;18.57;;;9.70;;
20415;SDS011;10367;52.202;5.996;2022-12-08T03:25:01;19.83;;;9.07;;
20415;SDS011;10367;52.202;5.996;2022-12-08T03:27:30;20.97;;;9.17;;
20415;SDS011;10367;52.202;5.996;2022-12-08T03:29:59;28.63;;;11.83;;
20415;SDS011;10367;52.202;5.996;2022-12-08T03:32:39;17.07;;;9.10;;
20415;SDS011;10367;52.202;5.996;2022-12-08T03:35:15;21.73;;;9.97;;
20415;SDS011;10367;52.202;5.996;2022-12-08T03:37:48;19.93;;;9.70;;
20415;SDS011;10367;52.202;5.996;2022-12-08T03:40:18;14.57;;;9.00;;
20415;SDS011;10367;52.202;5.996;2022-12-08T03:42:47;25.20;;;10.87;;
20415;SDS011;10367;52.202;5.996;2022-12-08T03:45:16;17.53;;;10.33;;
20415;SDS011;10367;52.202;5.996;2022-12-08T03:47:45;18.27;;;10.13;;
20415;SDS011;10367;52.202;5.996;2022-12-08T03:50:14;18.87;;;9.20;;
20415;SDS011;10367;52.202;5.996;2022-12-08T03:52:42;19.80;;;10.40;;
20415;SDS011;10367;52.202;5.996;2022-12-08T03:55:13;25.63;;;11.03;;
20415;SDS011;10367;52.202;5.996;2022-12-08T03:57:42;16.30;;;9.97;;
20415;SDS011;10367;52.202;5.996;2022-12-08T04:00:13;20.80;;;10.93;;
20415;SDS011;10367;52.202;5.996;2022-12-08T04:02:43;20.60;;;11.13;;
20415;SDS011;10367;52.202;5.996;2022-12-08T04:05:11;20.93;;;11.07;;
20415;SDS011;10367;52.202;5.996;2022-12-08T04:07:40;24.90;;;11.90;;
20415;SDS011;10367;52.202;5.996;2022-12-08T04:10:09;19.07;;;10.63;;
20415;SDS011;10367;52.202;5.996;2022-12-08T04:12:39;19.87;;;11.03;;
20415;SDS011;10367;52.202;5.996;2022-12-08T04:15:09;18.13;;;9.47;;
20415;SDS011;10367;52.202;5.996;2022-12-08T04:17:38;20.83;;;10.97;;
20415;SDS011;10367;52.202;5.996;2022-12-08T04:20:07;19.73;;;10.90;;
20415;SDS011;10367;52.202;5.996;2022-12-08T04:22:36;15.00;;;9.00;;
20415;SDS011;10367;52.202;5.996;2022-12-08T04:25:05;19.30;;;10.10;;
20415;SDS011;10367;52.202;5.996;2022-12-08T04:27:34;19.90;;;10.60;;
20415;SDS011;10367;52.202;5.996;2022-12-08T04:30:05;25.93;;;11.53;;
20415;SDS011;10367;52.202;5.996;2022-12-08T04:32:35;27.63;;;10.73;;
20415;SDS011;10367;52.202;5.996;2022-12-08T04:35:09;19.87;;;10.13;;
20415;SDS011;10367;52.202;5.996;2022-12-08T04:37:38;22.83;;;11.27;;
20415;SDS011;10367;52.202;5.996;2022-12-08T04:40:07;17.17;;;9.37;;
20415;SDS011;10367;52.202;5.996;2022-12-08T04:42:37;17.60;;;9.47;;
20415;SDS011;10367;52.202;5.996;2022-12-08T04:45:07;16.00;;;8.87;;
20415;SDS011;10367;52.202;5.996;2022-12-08T04:47:36;22.63;;;10.63;;
20415;SDS011;10367;52.202;5.996;2022-12-08T04:50:06;22.03;;;10.87;;
20415;SDS011;10367;52.202;5.996;2022-12-08T04:52:35;16.83;;;9.17;;
20415;SDS011;10367;52.202;5.996;2022-12-08T04:55:04;24.07;;;10.07;;
20415;SDS011;10367;52.202;5.996;2022-12-08T04:57:33;20.33;;;9.37;;
20415;SDS011;10367;52.202;5.996;2022-12-08T05:00:03;17.10;;;9.57;;
20415;SDS011;10367;52.202;5.996;2022-12-08T05:02:34;15.20;;;8.80;;
20415;SDS011;10367;52.202;5.996;2022-12-08T05:05:03;15.10;;;8.43;;
20415;SDS011;10367;52.202;5.996;2022-12-08T05:07:32;18.90;;;9.80;;
20415;SDS011;10367;52.202;5.996;2022-12-08T05:10:01;18.87;;;9.87;;
20415;SDS011;10367;52.202;5.996;2022-12-08T05:12:31;14.13;;;7.77;;
20415;SDS011;10367;52.202;5.996;2022-12-08T05:15:00;17.03;;;8.73;;
20415;SDS011;10367;52.202;5.996;2022-12-08T05:17:29;15.13;;;8.33;;
20415;SDS011;10367;52.202;5.996;2022-12-08T05:20:03;22.00;;;9.10;;
20415;SDS011;10367;52.202;5.996;2022-12-08T05:22:33;12.30;;;7.13;;
20415;SDS011;10367;52.202;5.996;2022-12-08T05:25:01;17.40;;;7.90;;
20415;SDS011;10367;52.202;5.996;2022-12-08T05:27:30;13.30;;;7.87;;
20415;SDS011;10367;52.202;5.996;2022-12-08T05:29:59;18.00;;;8.60;;
20415;SDS011;10367;52.202;5.996;2022-12-08T05:32:29;12.07;;;7.53;;
20415;SDS011;10367;52.202;5.996;2022-12-08T05:34:59;16.50;;;7.83;;
20415;SDS011;10367;52.202;5.996;2022-12-08T05:37:27;10.23;;;6.63;;
20415;SDS011;10367;52.202;5.996;2022-12-08T05:39:56;13.47;;;7.20;;
20415;SDS011;10367;52.202;5.996;2022-12-08T05:42:25;17.23;;;7.57;;
20415;SDS011;10367;52.202;5.996;2022-12-08T05:44:53;11.10;;;6.47;;
20415;SDS011;10367;52.202;5.996;2022-12-08T05:47:22;12.23;;;6.73;;
20415;SDS011;10367;52.202;5.996;2022-12-08T05:49:51;13.57;;;7.03;;
20415;SDS011;10367;52.202;5.996;2022-12-08T05:52:21;11.33;;;5.80;;
20415;SDS011;10367;52.202;5.996;2022-12-08T05:54:50;10.60;;;6.23;;
20415;SDS011;10367;52.202;5.996;2022-12-08T05:57:21;10.03;;;6.00;;
20415;SDS011;10367;52.202;5.996;2022-12-08T05:59:50;18.07;;;7.73;;
20415;SDS011;10367;52.202;5.996;2022-12-08T06:02:19;20.13;;;8.60;;
20415;SDS011;10367;52.202;5.996;2022-12-08T06:04:51;7.07;;;5.37;;
20415;SDS011;10367;52.202;5.996;2022-12-08T06:07:20;9.53;;;5.57;;
20415;SDS011;10367;52.202;5.996;2022-12-08T06:09:50;9.83;;;5.93;;
20415;SDS011;10367;52.202;5.996;2022-12-08T06:12:18;13.73;;;6.97;;
20415;SDS011;10367;52.202;5.996;2022-12-08T06:14:47;16.53;;;7.80;;
20415;SDS011;10367;52.202;5.996;2022-12-08T06:17:16;13.47;;;6.77;;
20415;SDS011;10367;52.202;5.996;2022-12-08T06:19:45;19.65;;;10.25;;
20415;SDS011;10367;52.202;5.996;2022-12-08T06:22:14;8.83;;;6.30;;
20415;SDS011;10367;52.202;5.996;2022-12-08T06:24:44;9.03;;;6.30;;
20415;SDS011;10367;52.202;5.996;2022-12-08T06:27:13;12.03;;;6.57;;
20415;SDS011;10367;52.202;5.996;2022-12-08T06:29:46;11.10;;;6.37;;
20415;SDS011;10367;52.202;5.996;2022-12-08T06:32:14;10.57;;;6.07;;
20415;SDS011;10367;52.202;5.996;2022-12-08T06:34:48;12.13;;;6.17;;
20415;SDS011;10367;52.202;5.996;2022-12-08T06:37:17;10.87;;;5.90;;
20415;SDS011;10367;52.202;5.996;2022-12-08T06:39:48;11.43;;;6.10;;
20415;SDS011;10367;52.202;5.996;2022-12-08T06:42:17;10.73;;;6.27;;
20415;SDS011;10367;52.202;5.996;2022-12-08T06:45:06;16.20;;;7.67;;
20415;SDS011;10367;52.202;5.996;2022-12-08T06:47:35;20.93;;;8.10;;
20415;SDS011;10367;52.202;5.996;2022-12-08T06:50:05;13.85;;;9.15;;
20415;SDS011;10367;52.202;5.996;2022-12-08T06:52:34;10.67;;;6.87;;
20415;SDS011;10367;52.202;5.996;2022-12-08T06:55:25;12.63;;;6.40;;
20415;SDS011;10367;52.202;5.996;2022-12-08T06:58:14;9.80;;;6.83;;
20415;SDS011;10367;52.202;5.996;2022-12-08T07:00:43;15.70;;;7.73;;
20415;SDS011;10367;52.202;5.996;2022-12-08T07:03:12;11.60;;;6.60;;
20415;SDS011;10367;52.202;5.996;2022-12-08T07:05:41;10.70;;;6.20;;
20415;SDS011;10367;52.202;5.996;2022-12-08T07:08:10;13.13;;;6.73;;
20415;SDS011;10367;52.202;5.996;2022-12-08T07:10:40;11.37;;;6.40;;
20415;SDS011;10367;52.202;5.996;2022-12-08T07:13:09;15.93;;;7.70;;
20415;SDS011;10367;52.202;5.996;2022-12-08T07:15:37;11.00;;;6.90;;
20415;SDS011;10367;52.202;5.996;2022-12-08T07:18:06;18.10;;;8.33;;
20415;SDS011;10367;52.202;5.996;2022-12-08T07:20:34;15.60;;;7.33;;
20415;SDS011;10367;52.202;5.996;2022-12-08T07:23:03;18.80;;;8.83;;
20415;SDS011;10367;52.202;5.996;2022-12-08T07:25:32;13.70;;;7.10;;
20415;SDS011;10367;52.202;5.996;2022-12-08T07:28:02;18.43;;;8.33;;
20415;SDS011;10367;52.202;5.996;2022-12-08T07:30:35;14.10;;;7.57;;
20415;SDS011;10367;52.202;5.996;2022-12-08T07:33:04;23.97;;;9.63;;
20415;SDS011;10367;52.202;5.996;2022-12-08T07:35:32;18.03;;;8.03;;
20415;SDS011;10367;52.202;5.996;2022-12-08T07:38:01;19.73;;;8.90;;
20415;SDS011;10367;52.202;5.996;2022-12-08T07:40:30;16.83;;;7.97;;
20415;SDS011;10367;52.202;5.996;2022-12-08T07:42:58;20.17;;;8.57;;
20415;SDS011;10367;52.202;5.996;2022-12-08T07:45:28;14.17;;;7.23;;
20415;SDS011;10367;52.202;5.996;2022-12-08T07:47:57;24.17;;;8.87;;
20415;SDS011;10367;52.202;5.996;2022-12-08T07:50:26;18.00;;;7.73;;
20415;SDS011;10367;52.202;5.996;2022-12-08T07:52:55;15.93;;;7.67;;
20415;SDS011;10367;52.202;5.996;2022-12-08T07:55:23;9.83;;;5.97;;
20415;SDS011;10367;52.202;5.996;2022-12-08T07:57:52;14.43;;;7.83;;
20415;SDS011;10367;52.202;5.996;2022-12-08T08:00:22;11.70;;;6.90;;
20415;SDS011;10367;52.202;5.996;2022-12-08T08:02:52;21.30;;;8.73;;
20415;SDS011;10367;52.202;5.996;2022-12-08T08:05:21;18.90;;;8.10;;
20415;SDS011;10367;52.202;5.996;2022-12-08T08:07:50;11.57;;;6.37;;
20415;SDS011;10367;52.202;5.996;2022-12-08T08:10:19;10.70;;;6.83;;
20415;SDS011;10367;52.202;5.996;2022-12-08T08:12:48;17.20;;;7.13;;
20415;SDS011;10367;52.202;5.996;2022-12-08T08:15:16;16.30;;;7.17;;
20415;SDS011;10367;52.202;5.996;2022-12-08T08:17:48;11.83;;;6.70;;
20415;SDS011;10367;52.202;5.996;2022-12-08T08:20:19;15.83;;;7.40;;
20415;SDS011;10367;52.202;5.996;2022-12-08T08:22:49;10.97;;;6.57;;
20415;SDS011;10367;52.202;5.996;2022-12-08T08:25:19;8.27;;;5.90;;
20415;SDS011;10367;52.202;5.996;2022-12-08T08:27:49;13.00;;;6.87;;
20415;SDS011;10367;52.202;5.996;2022-12-08T08:30:18;10.03;;;5.87;;
20415;SDS011;10367;52.202;5.996;2022-12-08T08:32:47;14.20;;;6.33;;
20415;SDS011;10367;52.202;5.996;2022-12-08T08:35:16;11.73;;;7.00;;
20415;SDS011;10367;52.202;5.996;2022-12-08T08:37:46;10.80;;;6.50;;
20415;SDS011;10367;52.202;5.996;2022-12-08T08:40:15;13.03;;;7.23;;
20415;SDS011;10367;52.202;5.996;2022-12-08T08:42:44;7.87;;;5.70;;
20415;SDS011;10367;52.202;5.996;2022-12-08T08:45:13;14.13;;;7.30;;
20415;SDS011;10367;52.202;5.996;2022-12-08T08:47:42;16.40;;;7.90;;
20415;SDS011;10367;52.202;5.996;2022-12-08T08:50:10;13.43;;;7.23;;
20415;SDS011;10367;52.202;5.996;2022-12-08T08:52:39;12.67;;;6.83;;
20415;SDS011;10367;52.202;5.996;2022-12-08T08:55:09;13.70;;;6.73;;
20415;SDS011;10367;52.202;5.996;2022-12-08T08:57:38;7.60;;;5.80;;
20415;SDS011;10367;52.202;5.996;2022-12-08T09:00:07;21.97;;;9.50;;
20415;SDS011;10367;52.202;5.996;2022-12-08T09:02:37;8.80;;;5.77;;
20415;SDS011;10367;52.202;5.996;2022-12-08T09:05:05;14.67;;;7.17;;
20415;SDS011;10367;52.202;5.996;2022-12-08T09:07:35;12.80;;;7.40;;
20415;SDS011;10367;52.202;5.996;2022-12-08T09:10:04;16.07;;;7.63;;
20415;SDS011;10367;52.202;5.996;2022-12-08T09:12:35;10.67;;;6.27;;
20415;SDS011;10367;52.202;5.996;2022-12-08T09:15:04;18.37;;;8.20;;
20415;SDS011;10367;52.202;5.996;2022-12-08T09:17:34;12.63;;;7.20;;
20415;SDS011;10367;52.202;5.996;2022-12-08T09:20:03;15.30;;;7.77;;
20415;SDS011;10367;52.202;5.996;2022-12-08T09:22:33;18.67;;;8.10;;
20415;SDS011;10367;52.202;5.996;2022-12-08T09:25:01;16.00;;;8.17;;
20415;SDS011;10367;52.202;5.996;2022-12-08T09:27:30;14.80;;;7.23;;
20415;SDS011;10367;52.202;5.996;2022-12-08T09:30:01;15.07;;;7.77;;
20415;SDS011;10367;52.202;5.996;2022-12-08T09:32:30;13.37;;;7.47;;
20415;SDS011;10367;52.202;5.996;2022-12-08T09:34:58;15.90;;;7.83;;
20415;SDS011;10367;52.202;5.996;2022-12-08T09:37:27;17.53;;;7.90;;
20415;SDS011;10367;52.202;5.996;2022-12-08T09:39:55;18.67;;;8.87;;
20415;SDS011;10367;52.202;5.996;2022-12-08T09:42:27;15.67;;;8.07;;
20415;SDS011;10367;52.202;5.996;2022-12-08T09:45:03;17.00;;;7.87;;
20415;SDS011;10367;52.202;5.996;2022-12-08T09:47:34;13.83;;;7.00;;
20415;SDS011;10367;52.202;5.996;2022-12-08T09:50:10;17.90;;;8.53;;
20415;SDS011;10367;52.202;5.996;2022-12-08T09:52:43;8.63;;;6.07;;
20415;SDS011;10367;52.202;5.996;2022-12-08T09:55:18;13.57;;;6.70;;
20415;SDS011;10367;52.202;5.996;2022-12-08T09:57:53;14.50;;;7.60;;
20415;SDS011;10367;52.202;5.996;2022-12-08T10:00:29;11.33;;;6.73;;
20415;SDS011;10367;52.202;5.996;2022-12-08T10:02:57;15.27;;;7.33;;
20415;SDS011;10367;52.202;5.996;2022-12-08T10:05:26;16.30;;;7.03;;
20415;SDS011;10367;52.202;5.996;2022-12-08T10:08:00;14.83;;;7.20;;
20415;SDS011;10367;52.202;5.996;2022-12-08T10:10:37;12.40;;;6.97;;
20415;SDS011;10367;52.202;5.996;2022-12-08T10:13:10;17.10;;;7.43;;
20415;SDS011;10367;52.202;5.996;2022-12-08T10:15:49;12.83;;;6.87;;
20415;SDS011;10367;52.202;5.996;2022-12-08T10:18:27;11.87;;;6.70;;
20415;SDS011;10367;52.202;5.996;2022-12-08T10:20:59;10.77;;;6.77;;
20415;SDS011;10367;52.202;5.996;2022-12-08T10:23:40;9.60;;;6.53;;
20415;SDS011;10367;52.202;5.996;2022-12-08T10:26:12;12.63;;;7.13;;
20415;SDS011;10367;52.202;5.996;2022-12-08T10:28:41;12.50;;;6.67;;
20415;SDS011;10367;52.202;5.996;2022-12-08T10:31:14;13.20;;;7.40;;
20415;SDS011;10367;52.202;5.996;2022-12-08T10:33:44;7.57;;;5.87;;
20415;SDS011;10367;52.202;5.996;2022-12-08T10:36:15;19.07;;;8.83;;
20415;SDS011;10367;52.202;5.996;2022-12-08T10:38:43;8.33;;;5.80;;
20415;SDS011;10367;52.202;5.996;2022-12-08T10:41:13;14.57;;;7.50;;
20415;SDS011;10367;52.202;5.996;2022-12-08T10:43:45;11.70;;;6.03;;
20415;SDS011;10367;52.202;5.996;2022-12-08T10:46:18;9.93;;;6.20;;
20415;SDS011;10367;52.202;5.996;2022-12-08T10:48:49;7.30;;;5.53;;
20415;SDS011;10367;52.202;5.996;2022-12-08T10:51:23;12.60;;;6.83;;
20415;SDS011;10367;52.202;5.996;2022-12-08T10:53:54;12.80;;;6.60;;
20415;SDS011;10367;52.202;5.996;2022-12-08T10:56:24;8.03;;;5.50;;
20415;SDS011;10367;52.202;5.996;2022-12-08T10:59:05;15.33;;;7.47;;
20415;SDS011;10367;52.202;5.996;2022-12-08T11:01:44;7.60;;;5.43;;
20415;SDS011;10367;52.202;5.996;2022-12-08T11:04:16;11.97;;;6.30;;
20415;SDS011;10367;52.202;5.996;2022-12-08T11:06:45;6.30;;;5.50;;
20415;SDS011;10367;52.202;5.996;2022-12-08T11:09:23;9.60;;;6.10;;
20415;SDS011;10367;52.202;5.996;2022-12-08T11:12:07;12.90;;;7.00;;
20415;SDS011;10367;52.202;5.996;2022-12-08T11:14:45;9.47;;;6.43;;
20415;SDS011;10367;52.202;5.996;2022-12-08T11:17:23;6.10;;;5.10;;
20415;SDS011;10367;52.202;5.996;2022-12-08T11:19:54;9.10;;;6.10;;
20415;SDS011;10367;52.202;5.996;2022-12-08T11:22:27;9.23;;;6.20;;
20415;SDS011;10367;52.202;5.996;2022-12-08T11:24:58;12.03;;;6.87;;
20415;SDS011;10367;52.202;5.996;2022-12-08T11:27:29;11.40;;;6.40;;
20415;SDS011;10367;52.202;5.996;2022-12-08T11:30:00;13.13;;;7.33;;
20415;SDS011;10367;52.202;5.996;2022-12-08T11:32:38;11.23;;;6.40;;
20415;SDS011;10367;52.202;5.996;2022-12-08T11:35:09;15.10;;;7.47;;
20415;SDS011;10367;52.202;5.996;2022-12-08T11:37:46;7.17;;;5.90;;
20415;SDS011;10367;52.202;5.996;2022-12-08T11:40:16;10.13;;;5.60;;
20415;SDS011;10367;52.202;5.996;2022-12-08T11:42:52;8.27;;;5.57;;
20415;SDS011;10367;52.202;5.996;2022-12-08T11:45:29;12.17;;;6.67;;
20415;SDS011;10367;52.202;5.996;2022-12-08T11:48:08;19.17;;;7.97;;
20415;SDS011;10367;52.202;5.996;2022-12-08T11:50:42;7.00;;;5.53;;
20415;SDS011;10367;52.202;5.996;2022-12-08T11:53:17;11.03;;;6.83;;
20415;SDS011;10367;52.202;5.996;2022-12-08T11:55:53;10.23;;;5.67;;
20415;SDS011;10367;52.202;5.996;2022-12-08T11:58:25;12.43;;;7.10;;
20415;SDS011;10367;52.202;5.996;2022-12-08T12:01:01;12.43;;;6.50;;
20415;SDS011;10367;52.202;5.996;2022-12-08T12:03:32;13.87;;;7.37;;
20415;SDS011;10367;52.202;5.996;2022-12-08T12:06:16;16.20;;;8.43;;
20415;SDS011;10367;52.202;5.996;2022-12-08T12:09:16;11.80;;;6.83;;
20415;SDS011;10367;52.202;5.996;2022-12-08T12:11:55;9.90;;;6.30;;
20415;SDS011;10367;52.202;5.996;2022-12-08T12:17:44;9.03;;;6.03;;
20415;SDS011;10367;52.202;5.996;2022-12-08T12:20:20;11.50;;;6.87;;
20415;SDS011;10367;52.202;5.996;2022-12-08T12:22:55;9.80;;;5.90;;
20415;SDS011;10367;52.202;5.996;2022-12-08T12:25:28;10.60;;;6.30;;
20415;SDS011;10367;52.202;5.996;2022-12-08T12:27:57;11.07;;;6.73;;
20415;SDS011;10367;52.202;5.996;2022-12-08T12:30:31;8.53;;;5.83;;
20415;SDS011;10367;52.202;5.996;2022-12-08T12:33:18;9.70;;;6.50;;
20415;SDS011;10367;52.202;5.996;2022-12-08T12:35:49;7.23;;;5.53;;
20415;SDS011;10367;52.202;5.996;2022-12-08T12:38:20;15.70;;;7.50;;
20415;SDS011;10367;52.202;5.996;2022-12-08T12:41:10;12.37;;;7.07;;
20415;SDS011;10367;52.202;5.996;2022-12-08T12:43:40;10.77;;;6.20;;
20415;SDS011;10367;52.202;5.996;2022-12-08T12:46:56;5.97;;;5.13;;
20415;SDS011;10367;52.202;5.996;2022-12-08T12:52:46;8.30;;;5.67;;
20415;SDS011;10367;52.202;5.996;2022-12-08T12:58:33;11.00;;;6.50;;
20415;SDS011;10367;52.202;5.996;2022-12-08T13:04:12;18.03;;;8.40;;
20415;SDS011;10367;52.202;5.996;2022-12-08T13:06:42;8.73;;;5.70;;
20415;SDS011;10367;52.202;5.996;2022-12-08T13:09:21;13.33;;;6.90;;
20415;SDS011;10367;52.202;5.996;2022-12-08T13:11:55;12.63;;;6.80;;
20415;SDS011;10367;52.202;5.996;2022-12-08T13:14:28;9.37;;;5.73;;
20415;SDS011;10367;52.202;5.996;2022-12-08T13:16:59;14.50;;;7.40;;
20415;SDS011;10367;52.202;5.996;2022-12-08T13:19:31;9.73;;;5.60;;
20415;SDS011;10367;52.202;5.996;2022-12-08T13:22:02;16.97;;;7.63;;
20415;SDS011;10367;52.202;5.996;2022-12-08T13:24:32;11.97;;;6.27;;
20415;SDS011;10367;52.202;5.996;2022-12-08T13:33:16;6.40;;;5.03;;
20415;SDS011;10367;52.202;5.996;2022-12-08T13:35:52;15.43;;;7.43;;
20415;SDS011;10367;52.202;5.996;2022-12-08T13:38:45;6.13;;;4.83;;
20415;SDS011;10367;52.202;5.996;2022-12-08T13:41:16;15.97;;;7.10;;
20415;SDS011;10367;52.202;5.996;2022-12-08T13:43:49;10.33;;;6.13;;
20415;SDS011;10367;52.202;5.996;2022-12-08T13:46:48;8.17;;;5.30;;
20415;SDS011;10367;52.202;5.996;2022-12-08T13:49:40;8.43;;;5.13;;
20415;SDS011;10367;52.202;5.996;2022-12-08T13:52:42;10.80;;;5.90;;
20415;SDS011;10367;52.202;5.996;2022-12-08T13:55:33;11.80;;;5.97;;
20415;SDS011;10367;52.202;5.996;2022-12-08T13:58:27;10.93;;;5.87;;
20415;SDS011;10367;52.202;5.996;2022-12-08T14:01:02;10.40;;;5.90;;
20415;SDS011;10367;52.202;5.996;2022-12-08T14:03:37;14.23;;;6.50;;
20415;SDS011;10367;52.202;5.996;2022-12-08T14:06:34;9.67;;;5.17;;
20415;SDS011;10367;52.202;5.996;2022-12-08T14:09:06;12.60;;;6.20;;
20415;SDS011;10367;52.202;5.996;2022-12-08T14:11:39;12.50;;;5.93;;
20415;SDS011;10367;52.202;5.996;2022-12-08T14:14:12;12.27;;;6.03;;
20415;SDS011;10367;52.202;5.996;2022-12-08T14:17:04;11.97;;;5.80;;
20415;SDS011;10367;52.202;5.996;2022-12-08T14:19:36;13.97;;;6.57;;
20415;SDS011;10367;52.202;5.996;2022-12-08T14:22:08;16.00;;;7.10;;
20415;SDS011;10367;52.202;5.996;2022-12-08T14:24:45;12.23;;;5.53;;
20415;SDS011;10367;52.202;5.996;2022-12-08T14:27:18;9.97;;;5.53;;
20415;SDS011;10367;52.202;5.996;2022-12-08T14:29:49;9.67;;;5.97;;
20415;SDS011;10367;52.202;5.996;2022-12-08T14:32:23;10.57;;;5.30;;
20415;SDS011;10367;52.202;5.996;2022-12-08T14:34:55;16.67;;;6.93;;
20415;SDS011;10367;52.202;5.996;2022-12-08T14:37:27;8.20;;;5.37;;
20415;SDS011;10367;52.202;5.996;2022-12-08T14:40:02;12.77;;;6.27;;
20415;SDS011;10367;52.202;5.996;2022-12-08T14:42:40;7.83;;;4.70;;
20415;SDS011;10367;52.202;5.996;2022-12-08T14:45:11;15.77;;;6.93;;
20415;SDS011;10367;52.202;5.996;2022-12-08T14:47:41;12.57;;;6.20;;
20415;SDS011;10367;52.202;5.996;2022-12-08T14:53:08;15.93;;;6.77;;
20415;SDS011;10367;52.202;5.996;2022-12-08T14:55:40;13.17;;;5.90;;
20415;SDS011;10367;52.202;5.996;2022-12-08T14:58:15;16.83;;;7.40;;
20415;SDS011;10367;52.202;5.996;2022-12-08T15:00:47;8.10;;;5.67;;
20415;SDS011;10367;52.202;5.996;2022-12-08T15:03:17;10.67;;;6.00;;
20415;SDS011;10367;52.202;5.996;2022-12-08T15:05:50;8.67;;;5.47;;
20415;SDS011;10367;52.202;5.996;2022-12-08T15:08:19;19.37;;;8.10;;
20415;SDS011;10367;52.202;5.996;2022-12-08T15:13:51;8.97;;;5.87;;
20415;SDS011;10367;52.202;5.996;2022-12-08T15:16:24;12.97;;;6.93;;
20415;SDS011;10367;52.202;5.996;2022-12-08T15:19:03;17.83;;;7.77;;
20415;SDS011;10367;52.202;5.996;2022-12-08T15:21:42;6.33;;;5.13;;
20415;SDS011;10367;52.202;5.996;2022-12-08T15:24:13;11.43;;;6.27;;
20415;SDS011;10367;52.202;5.996;2022-12-08T15:26:44;8.87;;;5.30;;
20415;SDS011;10367;52.202;5.996;2022-12-08T15:29:18;14.30;;;6.83;;
20415;SDS011;10367;52.202;5.996;2022-12-08T15:31:49;13.63;;;6.63;;